• Join FlightAware (Why Join?)
  • Login
  • US Flag 
12:39AM EDT


 

Airport Tracker/Info


-or-


 

Live Flight TrackerFlight Track Log ✈ N352DS ✈ 01-Apr-2014 ✈ KXLL - KRDG

Flight Track Log - Related Links

Times and Time Zones

All times are in EDT time to prevent confusion due to time zone crossing. See the N352DS flight status page for this flight to view local times or setup timezone preferences in your user account.

Time Position Orientation Groundspeed Altitude Reporting Facility
EDT Latitude Longitude Course Direction KTS MPH feet Rate Location/Type
02:00PM 40.5667 -75.6519 270° West  Level FlightAware Approximate
02:01PM 40.5667 -75.6800 270° West  Level FlightAware Approximate
02:02PM 40.5550 -75.7028 232° Southwest  Level FlightAware Approximate
02:03PM 40.5418 -75.7248 232° Southwest  Level FlightAware Approximate
02:04PM 40.5286 -75.7468 232° Southwest  Level FlightAware Approximate
02:05PM 40.5150 -75.7684 217° Southwest  Level FlightAware Approximate
02:06PM 40.4980 -75.7854 217° Southwest  Level FlightAware Approximate
02:07PM 40.4804 -75.8000 180° South  Level FlightAware Approximate
02:08PM 40.4619 -75.8079 232° Southwest  Level FlightAware Approximate
02:09PM 40.4487 -75.8299 232° Southwest  Level FlightAware Approximate
02:10PM 40.4355 -75.8519 232° Southwest  Level FlightAware Approximate
02:11PM 40.4223 -75.8739 232° Southwest  Level FlightAware Approximate
02:12PM 40.4167 -75.8994 270° West  Level FlightAware Approximate
02:13PM 40.4001 -75.9166 217° Southwest  Level FlightAware Approximate
02:14PM 40.3831 -75.9336 217° Southwest  Level FlightAware Approximate
02:15PM 40.3667 -75.9500 217° Southwest  Level FlightAware Approximate
02:16PM 40.3453 -75.9500 180° South  Level FlightAware Approximate
02:17PM 40.3667 -75.9500 North  Level FlightAware Approximate
02:18PM 40.3785 -75.9652 217° Southwest  Level Estimated
02:19PM 40.3785 -75.9652 136° Southeast  Level Estimated
02:20PM 40.3785 -75.9652 136° Southeast  Level Estimated
02:21PM 40.3785 -75.9652 217° Southwest  Level Estimated
02:22PM 40.3785 -75.9652 136° Southeast  Level Estimated
02:23PM 40.3785 -75.9652 136° Southeast  Level Estimated
02:24PM 40.3785 -75.9652 217° Southwest  Level Estimated
02:25PM 40.3785 -75.9652 136° Southeast  Level Estimated
02:26PM 40.3785 -75.9652 136° Southeast  Level Estimated
02:27PM 40.3785 -75.9652 217° Southwest  Level Estimated
02:28PM 40.3785 -75.9652 136° Southeast  Level Estimated
02:29PM 40.3785 -75.9652 136° Southeast  Level Estimated
02:30PM 40.3785 -75.9652 217° Southwest  Level Estimated
02:31PM 40.3785 -75.9652 136° Southeast  Level Estimated